Impacts METAR Board
IDs:

KAQO - Llano Muni, TX, US

Updated at: 0100 UTC 01 Nov 2020
Potential Impact None Slight Moderate High
Time 31/13Z 31/14Z 31/15Z 31/16Z 31/17Z 31/18Z 31/19Z 31/20Z 31/21Z 31/22Z 31/23Z 01/00Z 01/01Z
Temp39 46 52 59 64 70 73 77 79 79 77 68 63
Dewpt36 39 39 41 41 39 39 39 39 39 41 43 45
Altim30.20 30.21 30.22 30.22 30.21 30.18 30.14 30.09 30.07 30.07 30.06 30.08 30.10
VIS10 10 10 10 10 10 10 10 10 10 10 10 10
CIG-- -- -- -- -- -- -- -- -- -- -- -- --
CoverCLRCLRCLRCLRCLRCLRCLRCLRCLRCLRCLRCLRCLR
FltCatVFRVFRVFRVFRVFRVFRVFRVFRVFRVFRVFRVFRVFR
WX--------------------------
WDir011002100190001801901601100
WSpd0 4 0 6 0 4 3 6 8 5 4 3 0
WGst-- -- -- -- -- -- -- -- -- -- -- -- --
Raw hourly METARs
KAQO 311255Z AUTO 00000KT 10SM CLR 04/02 A3020 RMK AO2
KAQO 311355Z AUTO 11004KT 10SM CLR 08/04 A3021 RMK AO2
KAQO 311455Z AUTO 00000KT 10SM CLR 11/04 A3022 RMK AO2
KAQO 311555Z AUTO 21006KT 10SM CLR 15/05 A3022 RMK AO2
KAQO 311655Z AUTO 00000KT 10SM CLR 18/05 A3021 RMK AO2
KAQO 311755Z AUTO 19004KT 10SM CLR 21/04 A3018 RMK AO2
KAQO 311855Z AUTO VRB03KT 10SM CLR 23/04 A3014 RMK AO2
KAQO 311955Z AUTO VRB06KT 10SM CLR 25/04 A3009 RMK AO2
KAQO 312055Z AUTO 18008KT 10SM CLR 26/04 A3007 RMK AO2
KAQO 312155Z AUTO 19005KT 10SM CLR 26/04 A3007 RMK AO2
KAQO 312255Z AUTO 16004KT 10SM CLR 25/05 A3006 RMK AO2
KAQO 312355Z AUTO 11003KT 10SM CLR 20/06 A3008 RMK AO2
KAQO 010055Z AUTO 00000KT 10SM CLR 17/07 A3010 RMK AO2